Airfield :
LOGIN :

Register | Disclaimer

   EN    FR    IT 

 










Legend :    VFR   Marginal VFR   IFR   Intensive IFR   Very Intensive IFR
Visi :
Ceiling :
>= 8 km
>= 3000ft
5 to 8 km
1000 to 3000 ft
1500m to 5 km
500 to 1000 ft
800 to 1500m
200 to 500 ft
< 800m
< 200 ft
Symbols :   Thunderstorms  Fog  Heavy snow  Heavy precipitations  Wind > 20 kt
SIGMETs :     Misc.  Thunderstorms  Icing  Turbulence  Mountain Waves  Volcanic Ashes






- Airport Elevation : 614 ft
- IATA code : CRL


EBCI - Charleroi

CURRENT METAR :
  • 050820Z VRB03KT 9999 FEW024 19/14 Q1010 NOSIG

EXPIRED METARs :
  • 050750Z 19003KT 140V280 9999 FEW020 18/14 Q1010 NOSIG
  • 050720Z VRB02KT 9999 FEW018 18/14 Q1010 NOSIG
  • 050650Z 18003KT 140V210 9000 NSC 17/14 Q1010 NOSIG
  • 050620Z 20005KT 9000 NSC 16/14 Q1010 NOSIG
  • 050550Z 18003KT 150V220 9000 NSC 16/14 Q1010 NOSIG

TAF TAF EBCI
Valid from the 05 at 06:00 until the 06 at 12:00 UTC


050500Z 0506/0612 VRB03KT 9999 SCT030
PROB30
TEMPO 0506/0507 4500 BR
BECMG 0513/0516 23010KT
BECMG 0519/0521 17007KT
PROB40
TEMPO 0521/0524 4500 RA SHRA
TEMPO 0602/0612 SHRA BKN012TCU
BECMG 0607/0609 23013KT
PROB30
TEMPO 0609/0612 23015G25KT 4000 SHRA BKN012CB



MET'MAP, your aeronautical weather chart ! - Copyright ORBIFLY December 2007 - Disclaimer

ORBIFLY MET'MAP TEAM :

Programming & Development : Alexandra Zaïnal
Concept & original design : Baudouin d'Aumeries
Assistance for programming : Marc-Olivier Méhu
Technical & hardware support : Manuel Goepfert

Contact : metmap@orbifly.com




SOURCES & CREDITS :

   NOAA